sensor_id;sensor_type;location;lat;lon;timestamp;P1;durP1;ratioP1;P2;durP2;ratioP2
60416;SDS011;46263;44.726;10.396;2022-12-13T00:00:28;55.97;;;24.30;;
60416;SDS011;46263;44.726;10.396;2022-12-13T00:02:54;60.05;;;24.55;;
60416;SDS011;46263;44.726;10.396;2022-12-13T00:05:20;63.85;;;24.92;;
60416;SDS011;46263;44.726;10.396;2022-12-13T00:07:45;64.63;;;24.73;;
60416;SDS011;46263;44.726;10.396;2022-12-13T00:10:11;66.28;;;25.23;;
60416;SDS011;46263;44.726;10.396;2022-12-13T00:12:36;73.50;;;26.38;;
60416;SDS011;46263;44.726;10.396;2022-12-13T00:15:02;70.60;;;25.40;;
60416;SDS011;46263;44.726;10.396;2022-12-13T00:17:30;75.10;;;27.52;;
60416;SDS011;46263;44.726;10.396;2022-12-13T00:19:55;68.78;;;25.25;;
60416;SDS011;46263;44.726;10.396;2022-12-13T00:22:21;62.00;;;24.52;;
60416;SDS011;46263;44.726;10.396;2022-12-13T00:24:46;64.07;;;24.65;;
60416;SDS011;46263;44.726;10.396;2022-12-13T00:27:12;72.32;;;25.15;;
60416;SDS011;46263;44.726;10.396;2022-12-13T00:29:37;72.03;;;26.85;;
60416;SDS011;46263;44.726;10.396;2022-12-13T00:32:03;69.47;;;25.27;;
60416;SDS011;46263;44.726;10.396;2022-12-13T00:34:28;67.65;;;25.88;;
60416;SDS011;46263;44.726;10.396;2022-12-13T00:36:54;65.25;;;25.13;;
60416;SDS011;46263;44.726;10.396;2022-12-13T00:39:20;64.07;;;24.95;;
60416;SDS011;46263;44.726;10.396;2022-12-13T00:41:45;65.45;;;25.73;;
60416;SDS011;46263;44.726;10.396;2022-12-13T00:44:11;71.55;;;25.10;;
60416;SDS011;46263;44.726;10.396;2022-12-13T00:46:38;68.57;;;25.85;;
60416;SDS011;46263;44.726;10.396;2022-12-13T00:49:04;67.70;;;25.77;;
60416;SDS011;46263;44.726;10.396;2022-12-13T00:51:30;72.20;;;25.92;;
60416;SDS011;46263;44.726;10.396;2022-12-13T00:53:58;80.93;;;27.33;;
60416;SDS011;46263;44.726;10.396;2022-12-13T00:56:26;76.07;;;27.85;;
60416;SDS011;46263;44.726;10.396;2022-12-13T00:58:54;66.32;;;25.08;;
60416;SDS011;46263;44.726;10.396;2022-12-13T01:01:22;72.15;;;27.05;;
60416;SDS011;46263;44.726;10.396;2022-12-13T01:03:51;60.40;;;24.85;;
60416;SDS011;46263;44.726;10.396;2022-12-13T01:06:20;70.03;;;25.60;;
60416;SDS011;46263;44.726;10.396;2022-12-13T01:08:47;66.90;;;25.65;;
60416;SDS011;46263;44.726;10.396;2022-12-13T01:11:14;56.42;;;23.15;;
60416;SDS011;46263;44.726;10.396;2022-12-13T01:13:40;64.45;;;26.42;;
60416;SDS011;46263;44.726;10.396;2022-12-13T01:16:06;66.35;;;25.85;;
60416;SDS011;46263;44.726;10.396;2022-12-13T01:18:33;70.28;;;25.30;;
60416;SDS011;46263;44.726;10.396;2022-12-13T01:21:00;68.13;;;25.88;;
60416;SDS011;46263;44.726;10.396;2022-12-13T01:23:26;63.60;;;25.40;;
60416;SDS011;46263;44.726;10.396;2022-12-13T01:25:52;64.07;;;24.30;;
60416;SDS011;46263;44.726;10.396;2022-12-13T01:28:18;60.65;;;24.83;;
60416;SDS011;46263;44.726;10.396;2022-12-13T01:30:43;63.58;;;25.88;;
60416;SDS011;46263;44.726;10.396;2022-12-13T01:33:09;52.92;;;22.65;;
60416;SDS011;46263;44.726;10.396;2022-12-13T01:35:34;56.25;;;22.27;;
60416;SDS011;46263;44.726;10.396;2022-12-13T01:38:00;59.70;;;24.67;;
60416;SDS011;46263;44.726;10.396;2022-12-13T01:40:26;60.55;;;24.77;;
60416;SDS011;46263;44.726;10.396;2022-12-13T01:42:52;56.88;;;24.35;;
60416;SDS011;46263;44.726;10.396;2022-12-13T01:45:22;63.42;;;23.13;;
60416;SDS011;46263;44.726;10.396;2022-12-13T01:47:56;53.95;;;23.42;;
60416;SDS011;46263;44.726;10.396;2022-12-13T01:50:26;57.75;;;23.88;;
60416;SDS011;46263;44.726;10.396;2022-12-13T01:52:56;54.38;;;22.90;;
60416;SDS011;46263;44.726;10.396;2022-12-13T01:55:24;54.67;;;22.88;;
60416;SDS011;46263;44.726;10.396;2022-12-13T01:57:52;57.10;;;23.95;;
60416;SDS011;46263;44.726;10.396;2022-12-13T02:00:23;60.22;;;23.52;;
60416;SDS011;46263;44.726;10.396;2022-12-13T02:02:50;65.93;;;24.70;;
60416;SDS011;46263;44.726;10.396;2022-12-13T02:05:26;66.63;;;25.60;;
60416;SDS011;46263;44.726;10.396;2022-12-13T02:07:58;63.97;;;25.15;;
60416;SDS011;46263;44.726;10.396;2022-12-13T02:10:25;64.10;;;25.42;;
60416;SDS011;46263;44.726;10.396;2022-12-13T02:12:51;52.90;;;23.65;;
60416;SDS011;46263;44.726;10.396;2022-12-13T02:15:17;60.03;;;24.90;;
60416;SDS011;46263;44.726;10.396;2022-12-13T02:17:52;54.42;;;21.77;;
60416;SDS011;46263;44.726;10.396;2022-12-13T02:20:35;61.58;;;23.30;;
60416;SDS011;46263;44.726;10.396;2022-12-13T02:31:48;63.50;;;25.10;;
60416;SDS011;46263;44.726;10.396;2022-12-13T02:34:38;61.47;;;24.13;;
60416;SDS011;46263;44.726;10.396;2022-12-13T02:42:53;59.08;;;24.27;;
60416;SDS011;46263;44.726;10.396;2022-12-13T02:45:49;60.67;;;23.15;;
60416;SDS011;46263;44.726;10.396;2022-12-13T02:48:18;59.30;;;23.58;;
60416;SDS011;46263;44.726;10.396;2022-12-13T02:50:49;61.80;;;23.00;;
60416;SDS011;46263;44.726;10.396;2022-12-13T02:53:16;56.15;;;21.25;;
60416;SDS011;46263;44.726;10.396;2022-12-13T02:55:45;53.42;;;20.60;;
60416;SDS011;46263;44.726;10.396;2022-12-13T02:58:11;56.97;;;21.60;;
60416;SDS011;46263;44.726;10.396;2022-12-13T03:01:02;57.65;;;22.27;;
60416;SDS011;46263;44.726;10.396;2022-12-13T03:03:52;52.20;;;21.10;;
60416;SDS011;46263;44.726;10.396;2022-12-13T03:10:05;59.83;;;22.05;;
60416;SDS011;46263;44.726;10.396;2022-12-13T03:15:56;56.67;;;22.90;;
60416;SDS011;46263;44.726;10.396;2022-12-13T03:18:25;55.22;;;22.85;;
60416;SDS011;46263;44.726;10.396;2022-12-13T03:20:56;51.40;;;22.02;;
60416;SDS011;46263;44.726;10.396;2022-12-13T03:23:26;53.80;;;23.48;;
60416;SDS011;46263;44.726;10.396;2022-12-13T03:25:58;59.22;;;24.00;;
60416;SDS011;46263;44.726;10.396;2022-12-13T03:28:27;56.83;;;23.80;;
60416;SDS011;46263;44.726;10.396;2022-12-13T03:30:53;51.95;;;22.55;;
60416;SDS011;46263;44.726;10.396;2022-12-13T03:33:18;57.88;;;24.45;;
60416;SDS011;46263;44.726;10.396;2022-12-13T03:35:44;53.22;;;21.88;;
60416;SDS011;46263;44.726;10.396;2022-12-13T03:38:10;49.95;;;22.10;;
60416;SDS011;46263;44.726;10.396;2022-12-13T03:40:39;48.22;;;19.52;;
60416;SDS011;46263;44.726;10.396;2022-12-13T03:43:05;48.03;;;20.67;;
60416;SDS011;46263;44.726;10.396;2022-12-13T03:45:31;49.10;;;21.23;;
60416;SDS011;46263;44.726;10.396;2022-12-13T03:47:56;47.28;;;20.67;;
60416;SDS011;46263;44.726;10.396;2022-12-13T03:50:21;50.90;;;21.20;;
60416;SDS011;46263;44.726;10.396;2022-12-13T03:52:47;46.17;;;19.95;;
60416;SDS011;46263;44.726;10.396;2022-12-13T03:55:15;53.13;;;21.85;;
60416;SDS011;46263;44.726;10.396;2022-12-13T03:57:40;49.20;;;20.25;;
60416;SDS011;46263;44.726;10.396;2022-12-13T04:00:06;50.13;;;19.90;;
60416;SDS011;46263;44.726;10.396;2022-12-13T04:02:33;50.42;;;21.10;;
60416;SDS011;46263;44.726;10.396;2022-12-13T04:04:59;55.58;;;21.45;;
60416;SDS011;46263;44.726;10.396;2022-12-13T04:07:24;42.05;;;19.67;;
60416;SDS011;46263;44.726;10.396;2022-12-13T04:09:50;50.33;;;21.85;;
60416;SDS011;46263;44.726;10.396;2022-12-13T04:12:16;48.17;;;20.20;;
60416;SDS011;46263;44.726;10.396;2022-12-13T04:15:00;56.53;;;21.42;;
60416;SDS011;46263;44.726;10.396;2022-12-13T04:17:26;49.13;;;19.67;;
60416;SDS011;46263;44.726;10.396;2022-12-13T04:19:51;45.83;;;20.65;;
60416;SDS011;46263;44.726;10.396;2022-12-13T04:22:17;52.42;;;20.90;;
60416;SDS011;46263;44.726;10.396;2022-12-13T04:24:42;45.92;;;22.17;;
60416;SDS011;46263;44.726;10.396;2022-12-13T04:27:08;49.35;;;20.75;;
60416;SDS011;46263;44.726;10.396;2022-12-13T04:29:33;47.95;;;20.77;;
60416;SDS011;46263;44.726;10.396;2022-12-13T04:31:58;53.03;;;21.48;;
60416;SDS011;46263;44.726;10.396;2022-12-13T04:34:24;46.63;;;20.50;;
60416;SDS011;46263;44.726;10.396;2022-12-13T04:36:49;49.88;;;20.35;;
60416;SDS011;46263;44.726;10.396;2022-12-13T04:39:15;50.88;;;18.98;;
60416;SDS011;46263;44.726;10.396;2022-12-13T04:41:40;41.08;;;17.92;;
60416;SDS011;46263;44.726;10.396;2022-12-13T04:44:06;41.92;;;18.17;;
60416;SDS011;46263;44.726;10.396;2022-12-13T04:46:33;42.90;;;19.52;;
60416;SDS011;46263;44.726;10.396;2022-12-13T04:48:59;40.15;;;19.13;;
60416;SDS011;46263;44.726;10.396;2022-12-13T04:51:25;41.72;;;19.52;;
60416;SDS011;46263;44.726;10.396;2022-12-13T04:53:50;39.97;;;17.13;;
60416;SDS011;46263;44.726;10.396;2022-12-13T04:56:16;41.08;;;18.05;;
60416;SDS011;46263;44.726;10.396;2022-12-13T04:58:42;46.95;;;20.75;;
60416;SDS011;46263;44.726;10.396;2022-12-13T05:01:08;39.80;;;18.08;;
60416;SDS011;46263;44.726;10.396;2022-12-13T05:03:35;39.60;;;17.67;;
60416;SDS011;46263;44.726;10.396;2022-12-13T05:06:08;45.38;;;18.92;;
60416;SDS011;46263;44.726;10.396;2022-12-13T05:08:36;47.33;;;18.67;;
60416;SDS011;46263;44.726;10.396;2022-12-13T05:11:05;47.42;;;19.55;;
60416;SDS011;46263;44.726;10.396;2022-12-13T05:13:32;49.00;;;19.10;;
60416;SDS011;46263;44.726;10.396;2022-12-13T05:15:58;46.90;;;18.77;;
60416;SDS011;46263;44.726;10.396;2022-12-13T05:18:25;34.08;;;16.70;;
60416;SDS011;46263;44.726;10.396;2022-12-13T05:20:52;33.97;;;16.67;;
60416;SDS011;46263;44.726;10.396;2022-12-13T05:23:18;35.55;;;16.48;;
60416;SDS011;46263;44.726;10.396;2022-12-13T05:25:45;35.63;;;17.17;;
60416;SDS011;46263;44.726;10.396;2022-12-13T05:28:11;35.85;;;16.48;;
60416;SDS011;46263;44.726;10.396;2022-12-13T05:30:40;38.65;;;17.75;;
60416;SDS011;46263;44.726;10.396;2022-12-13T05:33:08;41.10;;;17.60;;
60416;SDS011;46263;44.726;10.396;2022-12-13T05:35:34;38.72;;;17.90;;
60416;SDS011;46263;44.726;10.396;2022-12-13T05:38:00;38.85;;;16.77;;
60416;SDS011;46263;44.726;10.396;2022-12-13T05:40:26;37.28;;;16.63;;
60416;SDS011;46263;44.726;10.396;2022-12-13T05:42:53;29.38;;;14.68;;
60416;SDS011;46263;44.726;10.396;2022-12-13T05:45:19;31.50;;;15.65;;
60416;SDS011;46263;44.726;10.396;2022-12-13T05:47:45;30.80;;;15.70;;
60416;SDS011;46263;44.726;10.396;2022-12-13T05:50:12;36.70;;;16.45;;
60416;SDS011;46263;44.726;10.396;2022-12-13T05:52:39;33.38;;;16.20;;
60416;SDS011;46263;44.726;10.396;2022-12-13T05:55:07;31.02;;;15.40;;
60416;SDS011;46263;44.726;10.396;2022-12-13T05:57:33;29.20;;;16.02;;
60416;SDS011;46263;44.726;10.396;2022-12-13T05:59:58;27.85;;;15.20;;
60416;SDS011;46263;44.726;10.396;2022-12-13T06:02:24;29.40;;;15.00;;
60416;SDS011;46263;44.726;10.396;2022-12-13T06:04:49;29.15;;;14.77;;
60416;SDS011;46263;44.726;10.396;2022-12-13T06:07:15;31.58;;;15.88;;
60416;SDS011;46263;44.726;10.396;2022-12-13T06:09:40;30.08;;;14.88;;
60416;SDS011;46263;44.726;10.396;2022-12-13T06:12:06;30.33;;;15.63;;
60416;SDS011;46263;44.726;10.396;2022-12-13T06:14:33;30.13;;;15.68;;
60416;SDS011;46263;44.726;10.396;2022-12-13T06:16:59;28.40;;;14.88;;
60416;SDS011;46263;44.726;10.396;2022-12-13T06:19:25;26.15;;;15.00;;
60416;SDS011;46263;44.726;10.396;2022-12-13T06:21:51;28.40;;;14.32;;
60416;SDS011;46263;44.726;10.396;2022-12-13T06:24:18;28.45;;;14.15;;
60416;SDS011;46263;44.726;10.396;2022-12-13T06:26:45;27.60;;;14.82;;
60416;SDS011;46263;44.726;10.396;2022-12-13T06:29:15;24.13;;;13.65;;
60416;SDS011;46263;44.726;10.396;2022-12-13T06:31:43;29.23;;;14.75;;
60416;SDS011;46263;44.726;10.396;2022-12-13T06:34:08;25.27;;;14.43;;
60416;SDS011;46263;44.726;10.396;2022-12-13T06:36:33;32.20;;;15.95;;
60416;SDS011;46263;44.726;10.396;2022-12-13T06:39:03;28.42;;;15.90;;
60416;SDS011;46263;44.726;10.396;2022-12-13T06:41:30;31.02;;;17.23;;
60416;SDS011;46263;44.726;10.396;2022-12-13T06:43:55;31.85;;;16.70;;
60416;SDS011;46263;44.726;10.396;2022-12-13T06:46:21;22.42;;;13.68;;
60416;SDS011;46263;44.726;10.396;2022-12-13T06:48:47;23.13;;;13.88;;
60416;SDS011;46263;44.726;10.396;2022-12-13T06:51:13;22.38;;;12.32;;
60416;SDS011;46263;44.726;10.396;2022-12-13T06:53:39;18.67;;;11.88;;
60416;SDS011;46263;44.726;10.396;2022-12-13T06:56:05;24.02;;;13.88;;
60416;SDS011;46263;44.726;10.396;2022-12-13T06:58:35;23.95;;;13.73;;
60416;SDS011;46263;44.726;10.396;2022-12-13T07:01:10;24.67;;;13.45;;
60416;SDS011;46263;44.726;10.396;2022-12-13T07:03:38;25.08;;;13.68;;
60416;SDS011;46263;44.726;10.396;2022-12-13T07:06:11;22.88;;;13.38;;
60416;SDS011;46263;44.726;10.396;2022-12-13T07:08:42;25.27;;;14.30;;
60416;SDS011;46263;44.726;10.396;2022-12-13T07:11:15;28.48;;;19.90;;
60416;SDS011;46263;44.726;10.396;2022-12-13T07:13:43;28.13;;;18.75;;
60416;SDS011;46263;44.726;10.396;2022-12-13T07:16:09;23.83;;;15.02;;
60416;SDS011;46263;44.726;10.396;2022-12-13T07:18:35;23.25;;;14.05;;
60416;SDS011;46263;44.726;10.396;2022-12-13T07:21:05;23.42;;;14.38;;
60416;SDS011;46263;44.726;10.396;2022-12-13T07:23:35;23.30;;;14.68;;
60416;SDS011;46263;44.726;10.396;2022-12-13T07:26:01;23.55;;;13.73;;
60416;SDS011;46263;44.726;10.396;2022-12-13T07:28:27;22.05;;;13.93;;
60416;SDS011;46263;44.726;10.396;2022-12-13T07:30:53;24.33;;;14.65;;
60416;SDS011;46263;44.726;10.396;2022-12-13T07:33:19;21.25;;;13.43;;
60416;SDS011;46263;44.726;10.396;2022-12-13T07:35:45;24.13;;;13.68;;
60416;SDS011;46263;44.726;10.396;2022-12-13T07:38:11;23.65;;;12.98;;
60416;SDS011;46263;44.726;10.396;2022-12-13T07:40:37;21.88;;;13.82;;
60416;SDS011;46263;44.726;10.396;2022-12-13T07:43:04;23.73;;;14.02;;
60416;SDS011;46263;44.726;10.396;2022-12-13T07:45:31;22.92;;;12.88;;
60416;SDS011;46263;44.726;10.396;2022-12-13T07:47:57;19.77;;;12.25;;
60416;SDS011;46263;44.726;10.396;2022-12-13T07:50:23;19.02;;;11.55;;
60416;SDS011;46263;44.726;10.396;2022-12-13T07:52:49;22.67;;;12.23;;
60416;SDS011;46263;44.726;10.396;2022-12-13T07:55:15;18.95;;;12.50;;
60416;SDS011;46263;44.726;10.396;2022-12-13T07:57:42;21.63;;;13.50;;
60416;SDS011;46263;44.726;10.396;2022-12-13T08:00:08;22.58;;;13.43;;
60416;SDS011;46263;44.726;10.396;2022-12-13T08:02:34;22.02;;;14.38;;
60416;SDS011;46263;44.726;10.396;2022-12-13T08:05:00;23.27;;;13.27;;
60416;SDS011;46263;44.726;10.396;2022-12-13T08:07:26;24.10;;;13.82;;
60416;SDS011;46263;44.726;10.396;2022-12-13T08:09:51;22.83;;;12.55;;
60416;SDS011;46263;44.726;10.396;2022-12-13T08:12:16;20.15;;;12.50;;
60416;SDS011;46263;44.726;10.396;2022-12-13T08:14:42;21.10;;;13.43;;
60416;SDS011;46263;44.726;10.396;2022-12-13T08:17:07;23.60;;;13.40;;
60416;SDS011;46263;44.726;10.396;2022-12-13T08:19:33;21.77;;;13.32;;
60416;SDS011;46263;44.726;10.396;2022-12-13T08:21:58;20.50;;;12.70;;
60416;SDS011;46263;44.726;10.396;2022-12-13T08:24:24;23.45;;;13.65;;
60416;SDS011;46263;44.726;10.396;2022-12-13T08:26:51;25.88;;;14.50;;
60416;SDS011;46263;44.726;10.396;2022-12-13T08:29:17;20.58;;;12.73;;
60416;SDS011;46263;44.726;10.396;2022-12-13T08:31:42;21.98;;;12.82;;
60416;SDS011;46263;44.726;10.396;2022-12-13T08:34:08;21.45;;;13.20;;
60416;SDS011;46263;44.726;10.396;2022-12-13T08:36:33;23.02;;;13.43;;
60416;SDS011;46263;44.726;10.396;2022-12-13T08:38:59;21.35;;;12.85;;
60416;SDS011;46263;44.726;10.396;2022-12-13T08:41:27;25.55;;;14.60;;
60416;SDS011;46263;44.726;10.396;2022-12-13T08:43:53;20.77;;;13.50;;
60416;SDS011;46263;44.726;10.396;2022-12-13T08:46:19;19.67;;;13.40;;
60416;SDS011;46263;44.726;10.396;2022-12-13T08:48:44;19.45;;;13.00;;
60416;SDS011;46263;44.726;10.396;2022-12-13T08:51:11;19.83;;;12.90;;
60416;SDS011;46263;44.726;10.396;2022-12-13T08:53:38;19.55;;;12.93;;
60416;SDS011;46263;44.726;10.396;2022-12-13T08:56:08;21.05;;;12.63;;
60416;SDS011;46263;44.726;10.396;2022-12-13T08:58:36;18.45;;;12.85;;
60416;SDS011;46263;44.726;10.396;2022-12-13T09:01:06;20.77;;;12.55;;
60416;SDS011;46263;44.726;10.396;2022-12-13T09:03:32;19.60;;;12.32;;
60416;SDS011;46263;44.726;10.396;2022-12-13T09:06:04;20.35;;;12.95;;
60416;SDS011;46263;44.726;10.396;2022-12-13T09:08:31;20.13;;;12.68;;
60416;SDS011;46263;44.726;10.396;2022-12-13T09:11:00;20.48;;;13.13;;
60416;SDS011;46263;44.726;10.396;2022-12-13T09:13:28;18.83;;;12.60;;
60416;SDS011;46263;44.726;10.396;2022-12-13T09:15:54;21.08;;;12.57;;
60416;SDS011;46263;44.726;10.396;2022-12-13T09:18:20;19.98;;;12.35;;
60416;SDS011;46263;44.726;10.396;2022-12-13T09:20:45;20.27;;;13.07;;
60416;SDS011;46263;44.726;10.396;2022-12-13T09:23:11;20.67;;;13.23;;
60416;SDS011;46263;44.726;10.396;2022-12-13T09:25:36;20.40;;;13.43;;
60416;SDS011;46263;44.726;10.396;2022-12-13T09:28:02;19.65;;;12.52;;
60416;SDS011;46263;44.726;10.396;2022-12-13T09:30:29;22.05;;;13.85;;
60416;SDS011;46263;44.726;10.396;2022-12-13T09:32:55;20.27;;;13.55;;
60416;SDS011;46263;44.726;10.396;2022-12-13T09:35:20;21.75;;;13.32;;
60416;SDS011;46263;44.726;10.396;2022-12-13T09:37:46;20.13;;;13.15;;
60416;SDS011;46263;44.726;10.396;2022-12-13T09:40:21;21.33;;;12.63;;
60416;SDS011;46263;44.726;10.396;2022-12-13T09:42:51;17.25;;;11.85;;
60416;SDS011;46263;44.726;10.396;2022-12-13T09:45:19;17.35;;;11.85;;
60416;SDS011;46263;44.726;10.396;2022-12-13T09:47:46;19.92;;;11.80;;
60416;SDS011;46263;44.726;10.396;2022-12-13T09:50:24;19.05;;;11.77;;
60416;SDS011;46263;44.726;10.396;2022-12-13T09:52:52;17.35;;;11.57;;
60416;SDS011;46263;44.726;10.396;2022-12-13T09:55:20;17.27;;;11.70;;
60416;SDS011;46263;44.726;10.396;2022-12-13T09:57:49;17.10;;;11.52;;
60416;SDS011;46263;44.726;10.396;2022-12-13T10:00:17;17.80;;;11.55;;
60416;SDS011;46263;44.726;10.396;2022-12-13T10:02:48;18.90;;;11.20;;
60416;SDS011;46263;44.726;10.396;2022-12-13T10:05:33;19.70;;;12.73;;
60416;SDS011;46263;44.726;10.396;2022-12-13T10:10:30;21.65;;;13.00;;
60416;SDS011;46263;44.726;10.396;2022-12-13T10:13:04;20.30;;;12.98;;
60416;SDS011;46263;44.726;10.396;2022-12-13T10:15:32;17.83;;;12.77;;
60416;SDS011;46263;44.726;10.396;2022-12-13T10:18:00;18.52;;;12.27;;
60416;SDS011;46263;44.726;10.396;2022-12-13T10:20:27;18.48;;;12.02;;
60416;SDS011;46263;44.726;10.396;2022-12-13T10:22:54;15.15;;;10.15;;
60416;SDS011;46263;44.726;10.396;2022-12-13T10:25:39;15.63;;;10.05;;
60416;SDS011;46263;44.726;10.396;2022-12-13T10:28:14;18.33;;;11.65;;
60416;SDS011;46263;44.726;10.396;2022-12-13T10:30:41;17.42;;;10.82;;
60416;SDS011;46263;44.726;10.396;2022-12-13T10:33:18;16.25;;;10.25;;
60416;SDS011;46263;44.726;10.396;2022-12-13T10:36:00;19.08;;;11.60;;
60416;SDS011;46263;44.726;10.396;2022-12-13T10:38:28;16.50;;;10.70;;
60416;SDS011;46263;44.726;10.396;2022-12-13T10:40:56;17.92;;;12.20;;
60416;SDS011;46263;44.726;10.396;2022-12-13T10:43:22;17.88;;;10.45;;
60416;SDS011;46263;44.726;10.396;2022-12-13T10:48:33;17.85;;;11.63;;
60416;SDS011;46263;44.726;10.396;2022-12-13T10:53:33;16.63;;;10.73;;
60416;SDS011;46263;44.726;10.396;2022-12-13T10:56:02;15.32;;;10.85;;
60416;SDS011;46263;44.726;10.396;2022-12-13T10:58:35;18.90;;;12.30;;
60416;SDS011;46263;44.726;10.396;2022-12-13T11:03:42;19.05;;;11.98;;
60416;SDS011;46263;44.726;10.396;2022-12-13T11:06:22;17.75;;;10.82;;
60416;SDS011;46263;44.726;10.396;2022-12-13T11:08:51;19.02;;;11.30;;
60416;SDS011;46263;44.726;10.396;2022-12-13T11:11:17;17.13;;;11.38;;
60416;SDS011;46263;44.726;10.396;2022-12-13T11:13:53;18.63;;;11.23;;
60416;SDS011;46263;44.726;10.396;2022-12-13T11:16:28;17.13;;;11.45;;
60416;SDS011;46263;44.726;10.396;2022-12-13T11:18:57;16.15;;;11.10;;
60416;SDS011;46263;44.726;10.396;2022-12-13T11:21:28;19.58;;;11.60;;
60416;SDS011;46263;44.726;10.396;2022-12-13T11:23:57;16.38;;;10.77;;
60416;SDS011;46263;44.726;10.396;2022-12-13T11:26:26;16.10;;;11.40;;
60416;SDS011;46263;44.726;10.396;2022-12-13T11:43:01;17.15;;;11.23;;
60416;SDS011;46263;44.726;10.396;2022-12-13T11:46:04;17.08;;;11.15;;
60416;SDS011;46263;44.726;10.396;2022-12-13T11:48:52;16.88;;;10.50;;
60416;SDS011;46263;44.726;10.396;2022-12-13T11:51:29;14.95;;;10.55;;
60416;SDS011;46263;44.726;10.396;2022-12-13T11:54:03;18.75;;;11.38;;
60416;SDS011;46263;44.726;10.396;2022-12-13T11:56:39;20.67;;;11.35;;
60416;SDS011;46263;44.726;10.396;2022-12-13T12:02:24;16.67;;;10.52;;
60416;SDS011;46263;44.726;10.396;2022-12-13T12:04:58;14.13;;;10.02;;
60416;SDS011;46263;44.726;10.396;2022-12-13T12:10:09;15.32;;;10.48;;
60416;SDS011;46263;44.726;10.396;2022-12-13T12:12:39;17.60;;;11.15;;
60416;SDS011;46263;44.726;10.396;2022-12-13T12:15:16;17.80;;;10.00;;
60416;SDS011;46263;44.726;10.396;2022-12-13T12:17:47;15.43;;;9.77;;
60416;SDS011;46263;44.726;10.396;2022-12-13T12:20:14;15.88;;;10.15;;
60416;SDS011;46263;44.726;10.396;2022-12-13T12:47:45;16.20;;;9.95;;
60416;SDS011;46263;44.726;10.396;2022-12-13T12:56:26;13.45;;;9.50;;
60416;SDS011;46263;44.726;10.396;2022-12-13T13:02:07;17.45;;;10.65;;
60416;SDS011;46263;44.726;10.396;2022-12-13T13:04:58;16.25;;;10.77;;
60416;SDS011;46263;44.726;10.396;2022-12-13T13:07:37;18.50;;;10.43;;
60416;SDS011;46263;44.726;10.396;2022-12-13T13:10:07;15.48;;;10.50;;
60416;SDS011;46263;44.726;10.396;2022-12-13T13:12:35;19.35;;;11.25;;
60416;SDS011;46263;44.726;10.396;2022-12-13T13:21:23;17.63;;;12.20;;
60416;SDS011;46263;44.726;10.396;2022-12-13T13:26:25;18.27;;;11.13;;
60416;SDS011;46263;44.726;10.396;2022-12-13T13:29:40;17.15;;;11.70;;
60416;SDS011;46263;44.726;10.396;2022-12-13T13:34:31;17.17;;;11.60;;
60416;SDS011;46263;44.726;10.396;2022-12-13T13:36:59;16.65;;;10.65;;
60416;SDS011;46263;44.726;10.396;2022-12-13T13:42:00;14.82;;;10.50;;
60416;SDS011;46263;44.726;10.396;2022-12-13T13:47:10;14.18;;;9.73;;
60416;SDS011;46263;44.726;10.396;2022-12-13T13:49:38;17.77;;;10.10;;
60416;SDS011;46263;44.726;10.396;2022-12-13T13:52:19;16.02;;;10.48;;
60416;SDS011;46263;44.726;10.396;2022-12-13T14:22:25;16.23;;;10.65;;
60416;SDS011;46263;44.726;10.396;2022-12-13T14:27:43;16.80;;;11.10;;
60416;SDS011;46263;44.726;10.396;2022-12-13T14:30:25;18.25;;;12.07;;
60416;SDS011;46263;44.726;10.396;2022-12-13T14:32:50;15.88;;;11.07;;
60416;SDS011;46263;44.726;10.396;2022-12-13T14:35:26;15.52;;;10.05;;
60416;SDS011;46263;44.726;10.396;2022-12-13T14:40:28;16.17;;;11.05;;
60416;SDS011;46263;44.726;10.396;2022-12-13T14:42:56;14.70;;;10.07;;
60416;SDS011;46263;44.726;10.396;2022-12-13T14:45:34;15.98;;;10.80;;
60416;SDS011;46263;44.726;10.396;2022-12-13T14:48:03;15.75;;;10.57;;
60416;SDS011;46263;44.726;10.396;2022-12-13T14:50:32;15.65;;;10.70;;
60416;SDS011;46263;44.726;10.396;2022-12-13T14:53:00;17.70;;;11.18;;
60416;SDS011;46263;44.726;10.396;2022-12-13T14:55:32;18.67;;;10.95;;
60416;SDS011;46263;44.726;10.396;2022-12-13T14:58:00;15.23;;;11.02;;
60416;SDS011;46263;44.726;10.396;2022-12-13T15:00:42;17.77;;;10.43;;
60416;SDS011;46263;44.726;10.396;2022-12-13T15:03:10;16.88;;;11.18;;
60416;SDS011;46263;44.726;10.396;2022-12-13T15:05:45;16.00;;;10.95;;
60416;SDS011;46263;44.726;10.396;2022-12-13T15:08:14;16.35;;;10.98;;
60416;SDS011;46263;44.726;10.396;2022-12-13T15:15:42;16.20;;;10.93;;
60416;SDS011;46263;44.726;10.396;2022-12-13T15:20:37;17.80;;;11.13;;
60416;SDS011;46263;44.726;10.396;2022-12-13T15:23:47;15.70;;;10.52;;
60416;SDS011;46263;44.726;10.396;2022-12-13T15:26:19;15.73;;;11.60;;
60416;SDS011;46263;44.726;10.396;2022-12-13T15:28:52;16.43;;;10.60;;
60416;SDS011;46263;44.726;10.396;2022-12-13T15:31:19;14.90;;;9.70;;
60416;SDS011;46263;44.726;10.396;2022-12-13T15:33:46;15.90;;;10.98;;
60416;SDS011;46263;44.726;10.396;2022-12-13T15:41:21;14.98;;;10.38;;
60416;SDS011;46263;44.726;10.396;2022-12-13T15:43:51;14.70;;;10.15;;
60416;SDS011;46263;44.726;10.396;2022-12-13T15:46:30;19.50;;;11.20;;
60416;SDS011;46263;44.726;10.396;2022-12-13T15:49:02;16.10;;;10.88;;
60416;SDS011;46263;44.726;10.396;2022-12-13T15:51:28;14.45;;;10.32;;
60416;SDS011;46263;44.726;10.396;2022-12-13T15:59:39;15.88;;;11.05;;
60416;SDS011;46263;44.726;10.396;2022-12-13T16:02:38;16.42;;;10.68;;
60416;SDS011;46263;44.726;10.396;2022-12-13T16:05:08;16.88;;;11.18;;
60416;SDS011;46263;44.726;10.396;2022-12-13T16:07:42;18.15;;;10.88;;
60416;SDS011;46263;44.726;10.396;2022-12-13T16:10:07;16.40;;;11.75;;
60416;SDS011;46263;44.726;10.396;2022-12-13T16:15:24;15.43;;;11.25;;
60416;SDS011;46263;44.726;10.396;2022-12-13T16:17:53;18.13;;;11.48;;
60416;SDS011;46263;44.726;10.396;2022-12-13T16:20:20;18.40;;;12.05;;
60416;SDS011;46263;44.726;10.396;2022-12-13T16:22:47;19.42;;;11.45;;
60416;SDS011;46263;44.726;10.396;2022-12-13T16:25:16;18.75;;;12.52;;
60416;SDS011;46263;44.726;10.396;2022-12-13T16:27:44;15.27;;;11.65;;
60416;SDS011;46263;44.726;10.396;2022-12-13T16:30:12;16.70;;;11.07;;
60416;SDS011;46263;44.726;10.396;2022-12-13T16:32:38;18.15;;;12.45;;
60416;SDS011;46263;44.726;10.396;2022-12-13T16:35:03;19.55;;;11.55;;
60416;SDS011;46263;44.726;10.396;2022-12-13T16:37:30;18.00;;;12.02;;
60416;SDS011;46263;44.726;10.396;2022-12-13T16:39:56;22.60;;;12.20;;
60416;SDS011;46263;44.726;10.396;2022-12-13T16:42:22;15.75;;;11.25;;
60416;SDS011;46263;44.726;10.396;2022-12-13T16:44:48;19.08;;;12.68;;
60416;SDS011;46263;44.726;10.396;2022-12-13T16:47:14;18.17;;;12.15;;
60416;SDS011;46263;44.726;10.396;2022-12-13T16:49:39;19.33;;;11.43;;
60416;SDS011;46263;44.726;10.396;2022-12-13T16:52:06;21.90;;;11.65;;
60416;SDS011;46263;44.726;10.396;2022-12-13T16:54:32;17.08;;;10.82;;